sensor_id;sensor_type;location;lat;lon;timestamp;noise_LAeq;noise_LA_min;noise_LA_max;noise_LA01;noise_LA95
41518;Laerm;27249;48.094;-1.690;2024-03-22T00:02:01;50.82;41.68;62.06;;
41518;Laerm;27249;48.094;-1.690;2024-03-22T00:04:27;47.96;41.89;58.18;;
41518;Laerm;27249;48.094;-1.690;2024-03-22T00:06:52;45.68;41.03;54.45;;
41518;Laerm;27249;48.094;-1.690;2024-03-22T00:09:17;50.06;42.03;59.31;;
41518;Laerm;27249;48.094;-1.690;2024-03-22T00:11:43;53.00;43.86;64.30;;
41518;Laerm;27249;48.094;-1.690;2024-03-22T00:14:08;49.49;41.06;60.42;;
41518;Laerm;27249;48.094;-1.690;2024-03-22T00:16:34;50.75;40.98;60.62;;
41518;Laerm;27249;48.094;-1.690;2024-03-22T00:18:59;44.99;40.33;55.07;;
41518;Laerm;27249;48.094;-1.690;2024-03-22T00:21:25;47.06;40.13;57.65;;
41518;Laerm;27249;48.094;-1.690;2024-03-22T00:23:50;51.72;41.22;62.66;;
41518;Laerm;27249;48.094;-1.690;2024-03-22T00:26:15;47.05;40.98;60.06;;
41518;Laerm;27249;48.094;-1.690;2024-03-22T00:28:41;46.50;40.98;60.49;;
41518;Laerm;27249;48.094;-1.690;2024-03-22T00:31:06;48.64;41.38;61.68;;
41518;Laerm;27249;48.094;-1.690;2024-03-22T00:33:31;52.03;41.75;61.28;;
41518;Laerm;27249;48.094;-1.690;2024-03-22T00:35:56;48.56;40.33;62.56;;
41518;Laerm;27249;48.094;-1.690;2024-03-22T00:38:22;48.20;40.13;59.92;;
41518;Laerm;27249;48.094;-1.690;2024-03-22T00:40:47;47.16;40.80;59.94;;
41518;Laerm;27249;48.094;-1.690;2024-03-22T00:43:12;43.53;39.70;53.25;;
41518;Laerm;27249;48.094;-1.690;2024-03-22T00:45:37;48.94;40.23;59.46;;
41518;Laerm;27249;48.094;-1.690;2024-03-22T00:48:02;44.96;40.80;54.93;;
41518;Laerm;27249;48.094;-1.690;2024-03-22T00:50:28;53.08;40.80;70.20;;
41518;Laerm;27249;48.094;-1.690;2024-03-22T00:52:55;49.18;41.26;59.59;;
41518;Laerm;27249;48.094;-1.690;2024-03-22T00:55:21;43.60;41.14;49.11;;
41518;Laerm;27249;48.094;-1.690;2024-03-22T00:57:46;48.30;40.98;60.37;;
41518;Laerm;27249;48.094;-1.690;2024-03-22T01:00:12;47.50;41.06;61.05;;
41518;Laerm;27249;48.094;-1.690;2024-03-22T01:02:38;47.90;40.62;64.83;;
41518;Laerm;27249;48.094;-1.690;2024-03-22T01:05:03;42.99;39.57;48.12;;
41518;Laerm;27249;48.094;-1.690;2024-03-22T01:07:29;42.94;39.08;46.78;;
41518;Laerm;27249;48.094;-1.690;2024-03-22T01:09:54;47.66;39.81;60.45;;
41518;Laerm;27249;48.094;-1.690;2024-03-22T01:12:20;49.06;40.43;57.02;;
41518;Laerm;27249;48.094;-1.690;2024-03-22T01:14:45;43.28;40.13;48.45;;
41518;Laerm;27249;48.094;-1.690;2024-03-22T01:17:10;45.20;40.23;54.25;;
41518;Laerm;27249;48.094;-1.690;2024-03-22T01:19:35;48.22;41.19;58.98;;
41518;Laerm;27249;48.094;-1.690;2024-03-22T01:22:02;45.93;40.43;60.05;;
41518;Laerm;27249;48.094;-1.690;2024-03-22T01:24:27;43.49;40.71;46.76;;
41518;Laerm;27249;48.094;-1.690;2024-03-22T01:26:53;47.35;40.71;58.03;;
41518;Laerm;27249;48.094;-1.690;2024-03-22T01:29:19;50.26;39.92;62.57;;
41518;Laerm;27249;48.094;-1.690;2024-03-22T01:31:44;42.84;39.34;46.59;;
41518;Laerm;27249;48.094;-1.690;2024-03-22T01:34:09;46.25;40.43;57.15;;
41518;Laerm;27249;48.094;-1.690;2024-03-22T01:36:35;48.14;39.08;61.55;;
41518;Laerm;27249;48.094;-1.690;2024-03-22T01:39:00;45.37;39.46;53.98;;
41518;Laerm;27249;48.094;-1.690;2024-03-22T01:41:25;42.89;39.34;46.55;;
41518;Laerm;27249;48.094;-1.690;2024-03-22T01:43:50;48.29;40.98;58.89;;
41518;Laerm;27249;48.094;-1.690;2024-03-22T01:46:15;46.47;39.70;57.12;;
41518;Laerm;27249;48.094;-1.690;2024-03-22T01:48:41;53.04;41.06;64.29;;
41518;Laerm;27249;48.094;-1.690;2024-03-22T01:51:07;47.32;40.54;60.40;;
41518;Laerm;27249;48.094;-1.690;2024-03-22T01:53:34;51.30;40.71;62.47;;
41518;Laerm;27249;48.094;-1.690;2024-03-22T01:56:00;48.43;39.92;60.95;;
41518;Laerm;27249;48.094;-1.690;2024-03-22T01:58:25;49.37;40.23;59.54;;
41518;Laerm;27249;48.094;-1.690;2024-03-22T02:00:50;46.80;39.70;59.22;;
41518;Laerm;27249;48.094;-1.690;2024-03-22T02:03:16;42.72;39.81;46.66;;
41518;Laerm;27249;48.094;-1.690;2024-03-22T02:05:41;48.84;39.92;57.79;;
41518;Laerm;27249;48.094;-1.690;2024-03-22T02:08:06;49.01;40.53;59.34;;
41518;Laerm;27249;48.094;-1.690;2024-03-22T02:10:31;51.08;41.14;63.59;;
41518;Laerm;27249;48.094;-1.690;2024-03-22T02:12:57;49.79;40.03;59.27;;
41518;Laerm;27249;48.094;-1.690;2024-03-22T02:15:22;52.76;40.89;66.93;;
41518;Laerm;27249;48.094;-1.690;2024-03-22T02:17:48;46.04;40.80;59.99;;
41518;Laerm;27249;48.094;-1.690;2024-03-22T02:20:13;49.11;40.33;62.18;;
41518;Laerm;27249;48.094;-1.690;2024-03-22T02:22:38;48.20;40.62;59.98;;
41518;Laerm;27249;48.094;-1.690;2024-03-22T02:25:05;42.88;39.34;47.88;;
41518;Laerm;27249;48.094;-1.690;2024-03-22T02:27:30;42.78;38.81;46.57;;
41518;Laerm;27249;48.094;-1.690;2024-03-22T02:29:55;47.68;39.81;58.86;;
41518;Laerm;27249;48.094;-1.690;2024-03-22T02:32:21;51.52;40.71;63.41;;
41518;Laerm;27249;48.094;-1.690;2024-03-22T02:34:46;48.24;40.53;60.01;;
41518;Laerm;27249;48.094;-1.690;2024-03-22T02:37:11;46.83;40.13;58.32;;
41518;Laerm;27249;48.094;-1.690;2024-03-22T02:39:36;45.81;39.92;59.04;;
41518;Laerm;27249;48.094;-1.690;2024-03-22T02:42:02;54.09;40.43;67.40;;
41518;Laerm;27249;48.094;-1.690;2024-03-22T02:44:27;45.74;39.81;58.25;;
41518;Laerm;27249;48.094;-1.690;2024-03-22T02:46:52;43.07;39.58;50.28;;
41518;Laerm;27249;48.094;-1.690;2024-03-22T02:49:17;46.75;40.13;59.56;;
41518;Laerm;27249;48.094;-1.690;2024-03-22T02:51:43;47.65;40.43;60.25;;
41518;Laerm;27249;48.094;-1.690;2024-03-22T02:54:08;46.77;41.19;57.53;;
41518;Laerm;27249;48.094;-1.690;2024-03-22T02:56:33;46.13;40.89;56.41;;
41518;Laerm;27249;48.094;-1.690;2024-03-22T02:58:58;47.33;40.43;61.64;;
41518;Laerm;27249;48.094;-1.690;2024-03-22T03:01:23;47.11;40.89;58.76;;
41518;Laerm;27249;48.094;-1.690;2024-03-22T03:03:49;46.30;40.33;56.58;;
41518;Laerm;27249;48.094;-1.690;2024-03-22T03:06:15;49.21;40.33;64.81;;
41518;Laerm;27249;48.094;-1.690;2024-03-22T03:08:42;45.74;40.71;57.75;;
41518;Laerm;27249;48.094;-1.690;2024-03-22T03:11:08;49.95;41.22;61.06;;
41518;Laerm;27249;48.094;-1.690;2024-03-22T03:13:33;45.51;40.43;55.77;;
41518;Laerm;27249;48.094;-1.690;2024-03-22T03:15:58;48.50;41.30;64.42;;
41518;Laerm;27249;48.094;-1.690;2024-03-22T03:18:23;50.62;40.62;66.18;;
41518;Laerm;27249;48.094;-1.690;2024-03-22T03:20:49;46.89;40.33;58.89;;
41518;Laerm;27249;48.094;-1.690;2024-03-22T03:23:14;45.02;40.53;52.53;;
41518;Laerm;27249;48.094;-1.690;2024-03-22T03:25:39;50.61;40.71;64.04;;
41518;Laerm;27249;48.094;-1.690;2024-03-22T03:28:04;52.03;40.62;62.61;;
41518;Laerm;27249;48.094;-1.690;2024-03-22T03:30:31;48.88;40.03;64.50;;
41518;Laerm;27249;48.094;-1.690;2024-03-22T03:32:56;46.64;40.13;61.69;;
41518;Laerm;27249;48.094;-1.690;2024-03-22T03:35:21;49.77;40.23;64.41;;
41518;Laerm;27249;48.094;-1.690;2024-03-22T03:37:47;51.24;42.03;61.22;;
41518;Laerm;27249;48.094;-1.690;2024-03-22T03:40:12;49.52;41.22;62.40;;
41518;Laerm;27249;48.094;-1.690;2024-03-22T03:42:37;53.12;40.23;65.48;;
41518;Laerm;27249;48.094;-1.690;2024-03-22T03:45:02;48.87;41.14;59.34;;
41518;Laerm;27249;48.094;-1.690;2024-03-22T03:47:28;49.17;41.22;62.55;;
41518;Laerm;27249;48.094;-1.690;2024-03-22T03:49:53;50.49;41.22;62.84;;
41518;Laerm;27249;48.094;-1.690;2024-03-22T03:52:18;48.75;40.33;62.32;;
41518;Laerm;27249;48.094;-1.690;2024-03-22T03:54:44;49.21;40.23;62.27;;
41518;Laerm;27249;48.094;-1.690;2024-03-22T03:57:09;51.15;41.22;61.74;;
41518;Laerm;27249;48.094;-1.690;2024-03-22T03:59:34;49.66;42.47;58.11;;
41518;Laerm;27249;48.094;-1.690;2024-03-22T04:01:59;50.36;41.61;60.53;;
41518;Laerm;27249;48.094;-1.690;2024-03-22T04:04:24;45.54;39.70;55.33;;
41518;Laerm;27249;48.094;-1.690;2024-03-22T04:06:50;45.15;40.89;57.51;;
41518;Laerm;27249;48.094;-1.690;2024-03-22T04:09:15;47.56;41.22;59.21;;
41518;Laerm;27249;48.094;-1.690;2024-03-22T04:11:40;46.94;40.62;59.86;;
41518;Laerm;27249;48.094;-1.690;2024-03-22T04:14:05;51.41;41.82;64.91;;
41518;Laerm;27249;48.094;-1.690;2024-03-22T04:16:30;50.65;41.75;60.89;;
41518;Laerm;27249;48.094;-1.690;2024-03-22T04:18:56;46.35;41.14;55.27;;
41518;Laerm;27249;48.094;-1.690;2024-03-22T04:21:22;46.57;40.43;59.07;;
41518;Laerm;27249;48.094;-1.690;2024-03-22T04:23:48;50.73;42.22;62.55;;
41518;Laerm;27249;48.094;-1.690;2024-03-22T04:26:13;52.47;43.09;63.39;;
41518;Laerm;27249;48.094;-1.690;2024-03-22T04:28:38;46.13;41.30;58.42;;
41518;Laerm;27249;48.094;-1.690;2024-03-22T04:31:04;49.89;42.35;60.12;;
41518;Laerm;27249;48.094;-1.690;2024-03-22T04:33:30;49.87;41.96;58.88;;
41518;Laerm;27249;48.094;-1.690;2024-03-22T04:35:56;51.04;42.03;69.52;;
41518;Laerm;27249;48.094;-1.690;2024-03-22T04:38:21;50.77;42.76;61.40;;
41518;Laerm;27249;48.094;-1.690;2024-03-22T04:40:46;48.71;41.38;62.64;;
41518;Laerm;27249;48.094;-1.690;2024-03-22T04:43:12;52.55;42.53;61.63;;
41518;Laerm;27249;48.094;-1.690;2024-03-22T04:45:37;52.83;42.35;61.57;;
41518;Laerm;27249;48.094;-1.690;2024-03-22T04:48:03;49.75;43.19;60.99;;
41518;Laerm;27249;48.094;-1.690;2024-03-22T04:50:28;52.95;43.49;62.05;;
41518;Laerm;27249;48.094;-1.690;2024-03-22T04:52:54;46.89;41.81;58.62;;
41518;Laerm;27249;48.094;-1.690;2024-03-22T04:55:19;53.18;42.59;62.41;;
41518;Laerm;27249;48.094;-1.690;2024-03-22T04:57:44;53.12;42.65;61.45;;
41518;Laerm;27249;48.094;-1.690;2024-03-22T05:00:10;53.62;42.65;64.19;;
41518;Laerm;27249;48.094;-1.690;2024-03-22T05:02:36;53.37;43.58;64.28;;
41518;Laerm;27249;48.094;-1.690;2024-03-22T05:05:01;52.30;41.68;64.91;;
41518;Laerm;27249;48.094;-1.690;2024-03-22T05:07:26;51.28;41.55;63.68;;
41518;Laerm;27249;48.094;-1.690;2024-03-22T05:09:51;50.83;41.75;63.21;;
41518;Laerm;27249;48.094;-1.690;2024-03-22T05:12:16;51.39;42.71;60.34;;
41518;Laerm;27249;48.094;-1.690;2024-03-22T05:14:42;56.14;45.11;67.43;;
41518;Laerm;27249;48.094;-1.690;2024-03-22T05:17:07;50.75;42.65;62.83;;
41518;Laerm;27249;48.094;-1.690;2024-03-22T05:19:32;51.98;42.47;65.08;;
41518;Laerm;27249;48.094;-1.690;2024-03-22T05:21:58;55.72;43.19;69.27;;
41518;Laerm;27249;48.094;-1.690;2024-03-22T05:24:23;49.79;42.53;58.65;;
41518;Laerm;27249;48.094;-1.690;2024-03-22T05:26:49;54.39;43.58;63.95;;
41518;Laerm;27249;48.094;-1.690;2024-03-22T05:29:14;48.00;42.71;60.46;;
41518;Laerm;27249;48.094;-1.690;2024-03-22T05:31:46;54.90;43.99;64.97;;
41518;Laerm;27249;48.094;-1.690;2024-03-22T05:34:13;53.09;41.96;63.34;;
41518;Laerm;27249;48.094;-1.690;2024-03-22T05:36:39;56.75;42.59;81.20;;
41518;Laerm;27249;48.094;-1.690;2024-03-22T05:39:04;54.43;44.94;62.34;;
41518;Laerm;27249;48.094;-1.690;2024-03-22T05:41:30;53.34;43.14;62.39;;
41518;Laerm;27249;48.094;-1.690;2024-03-22T05:43:55;53.70;43.77;61.44;;
41518;Laerm;27249;48.094;-1.690;2024-03-22T05:46:20;53.27;44.03;70.21;;
41518;Laerm;27249;48.094;-1.690;2024-03-22T05:48:45;55.71;43.99;69.12;;
41518;Laerm;27249;48.094;-1.690;2024-03-22T05:51:10;54.92;43.77;70.18;;
41518;Laerm;27249;48.094;-1.690;2024-03-22T05:53:36;55.27;43.14;69.90;;
41518;Laerm;27249;48.094;-1.690;2024-03-22T05:56:01;56.80;45.20;66.51;;
41518;Laerm;27249;48.094;-1.690;2024-03-22T05:58:26;54.20;47.28;61.95;;
41518;Laerm;27249;48.094;-1.690;2024-03-22T06:00:51;53.63;44.07;61.76;;
41518;Laerm;27249;48.094;-1.690;2024-03-22T06:03:18;54.90;48.78;61.02;;
41518;Laerm;27249;48.094;-1.690;2024-03-22T06:05:43;55.88;49.82;64.43;;
41518;Laerm;27249;48.094;-1.690;2024-03-22T06:08:08;56.96;48.80;66.62;;
41518;Laerm;27249;48.094;-1.690;2024-03-22T06:10:34;54.93;47.34;61.96;;
41518;Laerm;27249;48.094;-1.690;2024-03-22T06:12:59;56.35;47.10;66.90;;
41518;Laerm;27249;48.094;-1.690;2024-03-22T06:15:24;57.56;50.22;68.53;;
41518;Laerm;27249;48.094;-1.690;2024-03-22T06:17:49;56.84;46.45;67.02;;
41518;Laerm;27249;48.094;-1.690;2024-03-22T06:20:15;56.79;47.90;64.16;;
41518;Laerm;27249;48.094;-1.690;2024-03-22T06:22:40;57.83;46.76;72.12;;
41518;Laerm;27249;48.094;-1.690;2024-03-22T06:25:05;56.23;48.77;61.17;;
41518;Laerm;27249;48.094;-1.690;2024-03-22T06:27:31;56.72;49.95;69.62;;
41518;Laerm;27249;48.094;-1.690;2024-03-22T06:29:56;56.12;49.73;62.51;;
41518;Laerm;27249;48.094;-1.690;2024-03-22T06:32:21;56.36;47.06;63.72;;
41518;Laerm;27249;48.094;-1.690;2024-03-22T06:34:46;56.90;47.91;66.14;;
41518;Laerm;27249;48.094;-1.690;2024-03-22T06:37:12;57.27;51.84;64.34;;
41518;Laerm;27249;48.094;-1.690;2024-03-22T06:39:37;55.85;48.05;64.16;;
41518;Laerm;27249;48.094;-1.690;2024-03-22T06:42:02;56.30;50.10;63.80;;
41518;Laerm;27249;48.094;-1.690;2024-03-22T06:44:27;58.22;50.80;70.30;;
41518;Laerm;27249;48.094;-1.690;2024-03-22T06:46:53;57.40;52.14;64.04;;
41518;Laerm;27249;48.094;-1.690;2024-03-22T06:49:18;57.94;50.77;65.18;;
41518;Laerm;27249;48.094;-1.690;2024-03-22T06:51:43;56.89;49.32;64.60;;
41518;Laerm;27249;48.094;-1.690;2024-03-22T06:54:09;56.84;51.55;63.57;;
41518;Laerm;27249;48.094;-1.690;2024-03-22T06:56:34;56.62;50.54;63.19;;
41518;Laerm;27249;48.094;-1.690;2024-03-22T06:58:59;57.36;48.91;65.10;;
41518;Laerm;27249;48.094;-1.690;2024-03-22T07:01:24;57.09;49.51;64.96;;
41518;Laerm;27249;48.094;-1.690;2024-03-22T07:03:49;56.30;49.88;63.88;;
41518;Laerm;27249;48.094;-1.690;2024-03-22T07:06:15;57.23;50.44;63.37;;
41518;Laerm;27249;48.094;-1.690;2024-03-22T07:08:40;56.80;50.73;64.99;;
41518;Laerm;27249;48.094;-1.690;2024-03-22T07:11:06;57.72;52.49;66.64;;
41518;Laerm;27249;48.094;-1.690;2024-03-22T07:13:31;57.69;49.02;62.84;;
41518;Laerm;27249;48.094;-1.690;2024-03-22T07:15:57;57.48;50.77;64.91;;
41518;Laerm;27249;48.094;-1.690;2024-03-22T07:18:22;57.73;50.04;68.41;;
41518;Laerm;27249;48.094;-1.690;2024-03-22T07:20:47;57.68;50.29;63.16;;
41518;Laerm;27249;48.094;-1.690;2024-03-22T07:23:13;56.62;49.14;65.15;;
41518;Laerm;27249;48.094;-1.690;2024-03-22T07:25:38;57.72;50.41;70.20;;
41518;Laerm;27249;48.094;-1.690;2024-03-22T07:28:03;57.59;50.95;64.82;;
41518;Laerm;27249;48.094;-1.690;2024-03-22T07:30:28;57.82;52.14;65.15;;
41518;Laerm;27249;48.094;-1.690;2024-03-22T07:32:54;57.75;51.70;67.49;;
41518;Laerm;27249;48.094;-1.690;2024-03-22T07:35:20;56.79;51.35;68.60;;
41518;Laerm;27249;48.094;-1.690;2024-03-22T07:37:45;55.99;50.07;64.26;;
41518;Laerm;27249;48.094;-1.690;2024-03-22T07:40:10;56.44;49.74;65.29;;
41518;Laerm;27249;48.094;-1.690;2024-03-22T07:42:37;57.30;51.64;65.75;;
41518;Laerm;27249;48.094;-1.690;2024-03-22T07:45:02;56.52;49.20;63.67;;
41518;Laerm;27249;48.094;-1.690;2024-03-22T07:47:29;59.12;53.51;66.49;;
41518;Laerm;27249;48.094;-1.690;2024-03-22T07:49:54;56.65;47.16;63.86;;
41518;Laerm;27249;48.094;-1.690;2024-03-22T07:52:19;56.80;46.89;62.82;;
41518;Laerm;27249;48.094;-1.690;2024-03-22T07:54:45;56.69;51.76;61.98;;
41518;Laerm;27249;48.094;-1.690;2024-03-22T07:57:10;57.22;51.40;64.13;;
41518;Laerm;27249;48.094;-1.690;2024-03-22T07:59:36;56.22;48.48;62.27;;
41518;Laerm;27249;48.094;-1.690;2024-03-22T08:02:02;56.56;49.41;64.36;;
41518;Laerm;27249;48.094;-1.690;2024-03-22T08:04:28;58.32;50.07;71.07;;
41518;Laerm;27249;48.094;-1.690;2024-03-22T08:06:53;56.63;47.04;62.64;;
41518;Laerm;27249;48.094;-1.690;2024-03-22T08:09:18;56.46;50.52;62.22;;
41518;Laerm;27249;48.094;-1.690;2024-03-22T08:11:44;56.96;49.98;65.97;;
41518;Laerm;27249;48.094;-1.690;2024-03-22T08:14:09;57.18;49.83;73.44;;
41518;Laerm;27249;48.094;-1.690;2024-03-22T08:16:34;58.49;49.41;79.43;;
41518;Laerm;27249;48.094;-1.690;2024-03-22T08:19:00;56.22;48.83;65.42;;
41518;Laerm;27249;48.094;-1.690;2024-03-22T08:21:25;57.31;49.63;69.74;;
41518;Laerm;27249;48.094;-1.690;2024-03-22T08:23:50;57.22;49.02;62.14;;
41518;Laerm;27249;48.094;-1.690;2024-03-22T08:26:16;55.87;47.84;67.99;;
41518;Laerm;27249;48.094;-1.690;2024-03-22T08:28:41;56.29;48.37;64.26;;
41518;Laerm;27249;48.094;-1.690;2024-03-22T08:31:06;56.61;51.38;62.82;;
41518;Laerm;27249;48.094;-1.690;2024-03-22T08:33:31;55.26;48.52;66.82;;
41518;Laerm;27249;48.094;-1.690;2024-03-22T08:35:57;57.06;49.45;69.74;;
41518;Laerm;27249;48.094;-1.690;2024-03-22T08:38:22;56.55;50.97;65.95;;
41518;Laerm;27249;48.094;-1.690;2024-03-22T08:40:48;56.91;48.91;67.43;;
41518;Laerm;27249;48.094;-1.690;2024-03-22T08:43:15;56.32;47.93;64.53;;
41518;Laerm;27249;48.094;-1.690;2024-03-22T08:45:40;57.57;48.81;68.69;;
41518;Laerm;27249;48.094;-1.690;2024-03-22T08:48:05;56.80;47.30;63.94;;
41518;Laerm;27249;48.094;-1.690;2024-03-22T08:50:31;55.61;47.32;63.97;;
41518;Laerm;27249;48.094;-1.690;2024-03-22T08:52:56;57.61;48.71;67.04;;
41518;Laerm;27249;48.094;-1.690;2024-03-22T08:55:21;54.31;48.61;61.40;;
41518;Laerm;27249;48.094;-1.690;2024-03-22T08:57:47;56.09;50.60;62.85;;
41518;Laerm;27249;48.094;-1.690;2024-03-22T09:00:12;56.49;48.21;66.03;;
41518;Laerm;27249;48.094;-1.690;2024-03-22T09:02:37;56.99;49.52;64.47;;
41518;Laerm;27249;48.094;-1.690;2024-03-22T09:05:03;57.07;50.67;62.27;;
41518;Laerm;27249;48.094;-1.690;2024-03-22T09:07:29;55.78;49.04;67.71;;
41518;Laerm;27249;48.094;-1.690;2024-03-22T09:09:54;55.83;46.89;67.59;;
41518;Laerm;27249;48.094;-1.690;2024-03-22T09:12:19;56.15;48.03;64.05;;
41518;Laerm;27249;48.094;-1.690;2024-03-22T09:14:44;80.24;50.12;94.63;;
41518;Laerm;27249;48.094;-1.690;2024-03-22T09:17:10;63.16;50.70;81.36;;
41518;Laerm;27249;48.094;-1.690;2024-03-22T09:19:35;55.87;49.56;62.63;;
41518;Laerm;27249;48.094;-1.690;2024-03-22T09:22:00;56.63;51.01;68.09;;
41518;Laerm;27249;48.094;-1.690;2024-03-22T09:24:25;56.49;48.34;63.04;;
41518;Laerm;27249;48.094;-1.690;2024-03-22T09:26:50;64.53;50.30;83.05;;
41518;Laerm;27249;48.094;-1.690;2024-03-22T09:29:16;55.72;49.44;65.18;;
41518;Laerm;27249;48.094;-1.690;2024-03-22T09:31:41;55.78;49.45;66.75;;
41518;Laerm;27249;48.094;-1.690;2024-03-22T09:34:06;55.70;48.54;65.73;;
41518;Laerm;27249;48.094;-1.690;2024-03-22T09:36:32;58.26;50.86;68.01;;
41518;Laerm;27249;48.094;-1.690;2024-03-22T09:39:00;54.56;48.61;64.30;;
41518;Laerm;27249;48.094;-1.690;2024-03-22T09:41:26;55.28;49.25;61.79;;
41518;Laerm;27249;48.094;-1.690;2024-03-22T09:43:51;57.46;50.79;62.92;;
41518;Laerm;27249;48.094;-1.690;2024-03-22T09:46:17;56.72;50.55;70.95;;
41518;Laerm;27249;48.094;-1.690;2024-03-22T09:48:43;57.07;50.36;67.09;;
41518;Laerm;27249;48.094;-1.690;2024-03-22T09:51:11;56.22;51.58;61.12;;
41518;Laerm;27249;48.094;-1.690;2024-03-22T09:53:36;56.28;49.25;63.88;;
41518;Laerm;27249;48.094;-1.690;2024-03-22T09:56:02;56.32;49.46;63.56;;
41518;Laerm;27249;48.094;-1.690;2024-03-22T09:58:27;55.76;49.50;75.78;;
41518;Laerm;27249;48.094;-1.690;2024-03-22T10:00:53;56.30;49.47;71.00;;
41518;Laerm;27249;48.094;-1.690;2024-03-22T10:03:20;55.07;45.45;77.39;;
41518;Laerm;27249;48.094;-1.690;2024-03-22T10:05:46;58.62;47.88;72.62;;
41518;Laerm;27249;48.094;-1.690;2024-03-22T10:08:12;61.35;50.61;79.99;;
41518;Laerm;27249;48.094;-1.690;2024-03-22T10:10:37;57.22;50.66;67.94;;
41518;Laerm;27249;48.094;-1.690;2024-03-22T10:13:03;56.60;50.06;65.44;;
41518;Laerm;27249;48.094;-1.690;2024-03-22T10:15:29;56.70;49.66;64.07;;
41518;Laerm;27249;48.094;-1.690;2024-03-22T10:17:56;56.27;48.48;63.36;;
41518;Laerm;27249;48.094;-1.690;2024-03-22T10:20:21;56.83;48.10;66.92;;
41518;Laerm;27249;48.094;-1.690;2024-03-22T10:22:56;57.25;50.54;68.74;;
41518;Laerm;27249;48.094;-1.690;2024-03-22T10:25:25;56.06;50.51;62.40;;
41518;Laerm;27249;48.094;-1.690;2024-03-22T10:27:51;56.86;50.60;65.05;;
41518;Laerm;27249;48.094;-1.690;2024-03-22T10:30:16;57.72;51.00;70.98;;
41518;Laerm;27249;48.094;-1.690;2024-03-22T10:32:42;57.32;49.27;66.98;;
41518;Laerm;27249;48.094;-1.690;2024-03-22T10:35:08;56.95;51.33;70.53;;
41518;Laerm;27249;48.094;-1.690;2024-03-22T10:37:36;57.35;50.32;71.89;;
41518;Laerm;27249;48.094;-1.690;2024-03-22T10:40:02;55.95;48.25;63.11;;
41518;Laerm;27249;48.094;-1.690;2024-03-22T10:42:33;55.57;47.88;62.33;;
41518;Laerm;27249;48.094;-1.690;2024-03-22T10:44:58;56.87;50.75;66.66;;
41518;Laerm;27249;48.094;-1.690;2024-03-22T10:47:24;61.63;49.24;84.89;;
41518;Laerm;27249;48.094;-1.690;2024-03-22T10:49:54;55.38;48.43;65.31;;
41518;Laerm;27249;48.094;-1.690;2024-03-22T10:52:23;56.87;50.93;68.96;;
41518;Laerm;27249;48.094;-1.690;2024-03-22T10:54:49;57.28;47.46;63.28;;
41518;Laerm;27249;48.094;-1.690;2024-03-22T10:57:15;57.57;51.45;66.87;;
41518;Laerm;27249;48.094;-1.690;2024-03-22T10:59:42;63.94;48.49;83.39;;
41518;Laerm;27249;48.094;-1.690;2024-03-22T11:02:10;57.23;50.10;71.80;;
41518;Laerm;27249;48.094;-1.690;2024-03-22T11:04:35;56.69;48.83;67.43;;
41518;Laerm;27249;48.094;-1.690;2024-03-22T11:07:00;59.36;51.43;79.61;;
41518;Laerm;27249;48.094;-1.690;2024-03-22T11:09:25;56.20;48.88;67.67;;
41518;Laerm;27249;48.094;-1.690;2024-03-22T11:11:51;59.01;50.24;69.88;;
41518;Laerm;27249;48.094;-1.690;2024-03-22T11:14:17;55.89;51.33;63.08;;
41518;Laerm;27249;48.094;-1.690;2024-03-22T11:16:43;55.50;48.08;62.30;;
41518;Laerm;27249;48.094;-1.690;2024-03-22T11:19:09;57.94;51.75;71.30;;
41518;Laerm;27249;48.094;-1.690;2024-03-22T11:21:34;56.65;50.31;62.14;;
41518;Laerm;27249;48.094;-1.690;2024-03-22T11:24:02;57.06;48.71;64.04;;
41518;Laerm;27249;48.094;-1.690;2024-03-22T11:26:27;55.56;50.50;61.32;;
41518;Laerm;27249;48.094;-1.690;2024-03-22T11:28:53;56.22;50.97;61.77;;
41518;Laerm;27249;48.094;-1.690;2024-03-22T11:31:18;56.79;47.98;64.06;;
41518;Laerm;27249;48.094;-1.690;2024-03-22T11:33:46;55.80;47.67;63.56;;
41518;Laerm;27249;48.094;-1.690;2024-03-22T11:36:12;56.91;47.00;67.55;;
41518;Laerm;27249;48.094;-1.690;2024-03-22T11:38:37;57.57;49.77;68.88;;
41518;Laerm;27249;48.094;-1.690;2024-03-22T11:41:02;56.02;46.95;63.38;;
41518;Laerm;27249;48.094;-1.690;2024-03-22T11:43:28;55.40;47.34;62.98;;
41518;Laerm;27249;48.094;-1.690;2024-03-22T11:45:54;55.22;49.66;64.41;;
41518;Laerm;27249;48.094;-1.690;2024-03-22T11:48:20;56.53;49.73;63.72;;
41518;Laerm;27249;48.094;-1.690;2024-03-22T11:50:45;56.69;49.87;63.23;;
41518;Laerm;27249;48.094;-1.690;2024-03-22T11:53:11;56.06;49.50;61.28;;
41518;Laerm;27249;48.094;-1.690;2024-03-22T11:55:36;57.29;51.40;62.86;;
41518;Laerm;27249;48.094;-1.690;2024-03-22T11:58:01;56.30;48.18;67.42;;
41518;Laerm;27249;48.094;-1.690;2024-03-22T12:00:27;56.87;51.06;65.87;;
41518;Laerm;27249;48.094;-1.690;2024-03-22T12:02:52;56.32;49.72;62.73;;
41518;Laerm;27249;48.094;-1.690;2024-03-22T12:05:18;55.92;48.28;66.30;;
41518;Laerm;27249;48.094;-1.690;2024-03-22T12:07:43;55.25;48.69;62.53;;
41518;Laerm;27249;48.094;-1.690;2024-03-22T12:10:10;54.82;47.65;64.08;;
41518;Laerm;27249;48.094;-1.690;2024-03-22T12:12:35;56.14;49.12;61.90;;
41518;Laerm;27249;48.094;-1.690;2024-03-22T12:15:02;55.23;46.54;61.27;;
41518;Laerm;27249;48.094;-1.690;2024-03-22T12:17:27;55.79;49.47;74.72;;
41518;Laerm;27249;48.094;-1.690;2024-03-22T12:19:52;57.07;48.08;68.91;;
41518;Laerm;27249;48.094;-1.690;2024-03-22T12:22:18;56.41;49.62;66.25;;
41518;Laerm;27249;48.094;-1.690;2024-03-22T12:24:43;56.01;48.08;63.64;;
41518;Laerm;27249;48.094;-1.690;2024-03-22T12:27:08;55.70;47.34;65.35;;
41518;Laerm;27249;48.094;-1.690;2024-03-22T12:29:34;56.82;46.48;63.62;;
41518;Laerm;27249;48.094;-1.690;2024-03-22T12:31:59;55.90;47.02;62.70;;
41518;Laerm;27249;48.094;-1.690;2024-03-22T12:34:31;57.19;48.60;68.73;;
41518;Laerm;27249;48.094;-1.690;2024-03-22T12:36:58;56.78;51.40;68.28;;
41518;Laerm;27249;48.094;-1.690;2024-03-22T12:39:23;55.79;47.63;75.15;;
41518;Laerm;27249;48.094;-1.690;2024-03-22T12:41:49;56.65;48.34;62.39;;
41518;Laerm;27249;48.094;-1.690;2024-03-22T12:44:14;57.63;50.80;67.95;;
41518;Laerm;27249;48.094;-1.690;2024-03-22T12:46:39;56.41;49.19;65.71;;
41518;Laerm;27249;48.094;-1.690;2024-03-22T12:49:07;56.05;48.46;63.57;;
41518;Laerm;27249;48.094;-1.690;2024-03-22T12:51:34;56.02;47.77;70.19;;
41518;Laerm;27249;48.094;-1.690;2024-03-22T12:54:00;54.88;49.34;61.23;;
41518;Laerm;27249;48.094;-1.690;2024-03-22T12:56:26;55.99;51.69;61.87;;
41518;Laerm;27249;48.094;-1.690;2024-03-22T12:58:51;56.40;49.14;66.09;;
41518;Laerm;27249;48.094;-1.690;2024-03-22T13:01:16;56.97;46.87;68.04;;
41518;Laerm;27249;48.094;-1.690;2024-03-22T13:03:41;57.09;49.96;65.10;;
41518;Laerm;27249;48.094;-1.690;2024-03-22T13:06:06;56.44;50.32;63.46;;
41518;Laerm;27249;48.094;-1.690;2024-03-22T13:08:32;55.25;48.69;63.42;;
41518;Laerm;27249;48.094;-1.690;2024-03-22T13:10:57;55.54;45.99;65.15;;
41518;Laerm;27249;48.094;-1.690;2024-03-22T13:13:22;54.85;45.77;68.03;;
41518;Laerm;27249;48.094;-1.690;2024-03-22T13:15:48;55.86;47.96;63.30;;
41518;Laerm;27249;48.094;-1.690;2024-03-22T13:18:13;56.68;48.28;64.19;;
41518;Laerm;27249;48.094;-1.690;2024-03-22T13:20:38;58.12;50.64;69.32;;
41518;Laerm;27249;48.094;-1.690;2024-03-22T13:23:04;56.80;50.59;69.92;;